Time;durP1;ratioP1;P1;durP2;ratioP2;P2;SDS_P1;SDS_P2;PMS_P1;PMS_P2;Temp;Humidity;BMP_temperature;BMP_pressure;BME280_temperature;BME280_humidity;BME280_pressure;Samples;Min_cycle;Max_cycle;Signal;HPM_P1;HPM_P2
2021/03/10 00:01:29;;;;;;;25.25;14.90;;;;;;;;;;5000997;28;20444;-80
2021/03/10 00:03:55;;;;;;;24.20;15.48;;;;;;;;;;4991112;28;20190;-80
2021/03/10 00:06:21;;;;;;;19.85;13.38;;;;;;;;;;5004930;28;20206;-80
2021/03/10 00:08:47;;;;;;;22.10;13.90;;;;;;;;;;5002514;28;20175;-77
2021/03/10 00:11:13;;;;;;;22.25;14.05;;;;;;;;;;5007218;28;20445;-79
2021/03/10 00:13:39;;;;;;;20.07;13.70;;;;;;;;;;5002431;28;20188;-79
2021/03/10 00:16:05;;;;;;;23.00;13.00;;;;;;;;;;5002627;28;20430;-80
2021/03/10 00:18:31;;;;;;;20.20;12.13;;;;;;;;;;5003365;28;20626;-80
2021/03/10 00:20:57;;;;;;;24.83;12.82;;;;;;;;;;4995486;28;20470;-79
2021/03/10 00:23:23;;;;;;;16.40;11.00;;;;;;;;;;4995904;28;20172;-80
2021/03/10 00:25:49;;;;;;;19.02;10.90;;;;;;;;;;5000480;28;20472;-80
2021/03/10 00:28:15;;;;;;;15.48;11.85;;;;;;;;;;4995452;28;20210;-79
2021/03/10 00:30:41;;;;;;;17.17;10.57;;;;;;;;;;4998979;28;20186;-80
2021/03/10 00:33:07;;;;;;;16.08;10.73;;;;;;;;;;4995832;28;20190;-80
2021/03/10 00:35:33;;;;;;;15.60;10.68;;;;;;;;;;5000443;28;20191;-80
2021/03/10 00:38:00;;;;;;;22.52;10.88;;;;;;;;;;4999569;28;20218;-80
2021/03/10 00:40:27;;;;;;;14.88;9.27;;;;;;;;;;5000141;28;20179;-80
2021/03/10 00:42:53;;;;;;;13.23;8.05;;;;;;;;;;4997927;28;20203;-79
2021/03/10 00:45:19;;;;;;;15.15;9.82;;;;;;;;;;4997420;28;20234;-80
2021/03/10 00:47:45;;;;;;;14.15;9.07;;;;;;;;;;4997788;28;20231;-80
2021/03/10 00:50:11;;;;;;;12.93;8.88;;;;;;;;;;4997670;28;20180;-80
2021/03/10 00:52:37;;;;;;;14.40;8.73;;;;;;;;;;4997006;28;20282;-81
2021/03/10 00:55:03;;;;;;;14.80;9.30;;;;;;;;;;4997571;28;21046;-80
2021/03/10 00:57:29;;;;;;;13.00;9.13;;;;;;;;;;4996846;28;20207;-80
2021/03/10 00:59:55;;;;;;;12.73;8.32;;;;;;;;;;4994472;28;20198;-80
2021/03/10 01:02:21;;;;;;;10.85;8.48;;;;;;;;;;4982731;28;20247;-80
2021/03/10 01:04:47;;;;;;;10.88;8.60;;;;;;;;;;5000668;28;20191;-79
2021/03/10 01:07:13;;;;;;;12.10;8.63;;;;;;;;;;4995840;28;20668;-80
2021/03/10 01:09:39;;;;;;;10.75;8.77;;;;;;;;;;4999984;28;20175;-80
2021/03/10 01:12:05;;;;;;;12.50;9.50;;;;;;;;;;4990369;28;20184;-80
2021/03/10 01:14:31;;;;;;;13.00;9.20;;;;;;;;;;4995194;28;20443;-80
2021/03/10 01:16:57;;;;;;;12.00;8.90;;;;;;;;;;4999253;28;20234;-80
2021/03/10 01:19:23;;;;;;;12.77;10.00;;;;;;;;;;4997015;28;20210;-80
2021/03/10 01:21:49;;;;;;;13.63;9.95;;;;;;;;;;5001387;28;20428;-79
2021/03/10 01:24:15;;;;;;;12.80;9.57;;;;;;;;;;4996685;28;20183;-80
2021/03/10 01:26:41;;;;;;;12.80;10.07;;;;;;;;;;4996183;28;20219;-80
2021/03/10 01:29:07;;;;;;;13.95;10.43;;;;;;;;;;4998268;28;20184;-80
2021/03/10 01:31:33;;;;;;;18.42;11.88;;;;;;;;;;4997489;28;20598;-80
2021/03/10 01:33:59;;;;;;;13.10;10.68;;;;;;;;;;4986737;28;20175;-79
2021/03/10 01:36:25;;;;;;;14.20;11.10;;;;;;;;;;4996530;28;20179;-79
2021/03/10 01:38:51;;;;;;;17.52;11.40;;;;;;;;;;4995596;28;20250;-79
2021/03/10 01:41:17;;;;;;;19.80;11.75;;;;;;;;;;4981944;28;20218;-79
2021/03/10 01:43:43;;;;;;;18.15;11.63;;;;;;;;;;5001042;28;20211;-80
2021/03/10 01:46:09;;;;;;;16.33;11.90;;;;;;;;;;4994864;28;20258;-80
2021/03/10 01:48:35;;;;;;;22.70;11.93;;;;;;;;;;5000857;28;20227;-80
2021/03/10 01:51:05;;;;;;;17.42;13.25;;;;;;;;;;4982750;28;20259;-80
2021/03/10 01:53:32;;;;;;;19.40;13.68;;;;;;;;;;4996147;28;20718;-79
2021/03/10 01:55:59;;;;;;;20.98;13.98;;;;;;;;;;4980836;28;20679;-80
2021/03/10 01:58:25;;;;;;;20.60;15.02;;;;;;;;;;4996837;28;20190;-80
2021/03/10 02:00:51;;;;;;;22.20;15.82;;;;;;;;;;4987958;28;20181;-80
2021/03/10 02:03:17;;;;;;;26.88;16.70;;;;;;;;;;4995143;28;20270;-80
2021/03/10 02:05:43;;;;;;;25.13;16.30;;;;;;;;;;4994584;28;20188;-79
2021/03/10 02:08:12;;;;;;;19.05;15.32;;;;;;;;;;4999719;28;20202;-80
2021/03/10 02:10:38;;;;;;;22.98;15.57;;;;;;;;;;5002285;28;20183;-80
2021/03/10 02:13:16;;;;;;;19.30;14.77;;;;;;;;;;4999952;28;20229;-80
2021/03/10 02:15:54;;;;;;;22.10;15.10;;;;;;;;;;5003276;28;20501;-80
2021/03/10 02:18:41;;;;;;;23.38;15.85;;;;;;;;;;4999742;28;20183;-81
2021/03/10 02:21:19;;;;;;;23.35;17.50;;;;;;;;;;4923988;29;20209;-80
2021/03/10 02:24:04;;;;;;;23.27;17.15;;;;;;;;;;4923629;29;20209;-78
2021/03/10 02:26:34;;;;;;;24.10;16.45;;;;;;;;;;4923646;29;20230;-80
2021/03/10 02:29:05;;;;;;;24.30;17.35;;;;;;;;;;4924133;29;20261;-80
2021/03/10 02:31:34;;;;;;;30.27;19.23;;;;;;;;;;4924088;29;20227;-80
2021/03/10 02:34:00;;;;;;;26.38;17.95;;;;;;;;;;4925423;29;20220;-80
2021/03/10 02:36:27;;;;;;;28.92;19.50;;;;;;;;;;4925920;29;20197;-79
2021/03/10 02:38:54;;;;;;;29.02;19.50;;;;;;;;;;4909229;29;20198;-79
2021/03/10 02:41:20;;;;;;;28.85;20.65;;;;;;;;;;4907432;29;20213;-79
2021/03/10 02:43:48;;;;;;;27.25;19.05;;;;;;;;;;4925447;29;20189;-79
2021/03/10 02:46:14;;;;;;;30.88;20.85;;;;;;;;;;4922863;29;20237;-79
2021/03/10 02:48:43;;;;;;;26.33;18.45;;;;;;;;;;4918257;29;20240;-79
2021/03/10 02:51:09;;;;;;;24.40;20.02;;;;;;;;;;4923613;29;20258;-80
2021/03/10 02:53:38;;;;;;;25.42;20.25;;;;;;;;;;4922901;29;20636;-80
2021/03/10 02:56:04;;;;;;;29.85;20.42;;;;;;;;;;4910266;29;20638;-80
2021/03/10 02:58:30;;;;;;;28.23;18.48;;;;;;;;;;4970171;28;20224;-80
2021/03/10 03:00:56;;;;;;;27.33;19.03;;;;;;;;;;5011002;28;20201;-79
2021/03/10 03:03:22;;;;;;;25.70;18.55;;;;;;;;;;4998049;28;20423;-80
2021/03/10 03:05:48;;;;;;;27.33;19.48;;;;;;;;;;4996590;28;20190;-79
2021/03/10 03:08:14;;;;;;;24.57;18.77;;;;;;;;;;4998863;28;20751;-79
2021/03/10 03:10:42;;;;;;;28.63;19.85;;;;;;;;;;4997456;28;20439;-80
2021/03/10 03:13:10;;;;;;;24.75;17.98;;;;;;;;;;4992131;28;20211;-79
2021/03/10 03:15:36;;;;;;;28.23;19.38;;;;;;;;;;5000471;28;20193;-79
2021/03/10 03:18:02;;;;;;;27.17;18.63;;;;;;;;;;4997534;28;20191;-79
2021/03/10 03:20:28;;;;;;;25.23;18.15;;;;;;;;;;4997791;28;20193;-79
2021/03/10 03:22:55;;;;;;;25.35;17.88;;;;;;;;;;4999423;28;20199;-80
2021/03/10 03:25:23;;;;;;;25.45;18.45;;;;;;;;;;4998399;28;20653;-79
2021/03/10 03:27:53;;;;;;;22.58;17.63;;;;;;;;;;4999986;28;20230;-79
2021/03/10 03:30:19;;;;;;;25.75;18.60;;;;;;;;;;5000176;28;20218;-80
2021/03/10 03:32:45;;;;;;;21.25;16.95;;;;;;;;;;4996946;28;20191;-80
2021/03/10 03:35:11;;;;;;;26.95;18.85;;;;;;;;;;5000945;28;20191;-79
2021/03/10 03:37:38;;;;;;;24.70;17.95;;;;;;;;;;5000688;28;20187;-79
2021/03/10 03:40:09;;;;;;;25.80;17.20;;;;;;;;;;4994754;28;20191;-80
2021/03/10 03:42:35;;;;;;;26.75;17.73;;;;;;;;;;5002903;28;20190;-79
2021/03/10 03:45:01;;;;;;;26.80;18.33;;;;;;;;;;5001849;28;20190;-80
2021/03/10 03:47:27;;;;;;;24.08;17.05;;;;;;;;;;4999305;28;20289;-80
2021/03/10 03:49:53;;;;;;;23.35;17.48;;;;;;;;;;5000841;28;20209;-80
2021/03/10 03:52:19;;;;;;;21.30;16.30;;;;;;;;;;4996338;28;20622;-79
2021/03/10 03:54:45;;;;;;;27.25;18.60;;;;;;;;;;5004524;28;20210;-79
2021/03/10 03:57:11;;;;;;;21.90;16.85;;;;;;;;;;5002500;28;20183;-80
2021/03/10 03:59:37;;;;;;;24.10;17.25;;;;;;;;;;4996230;28;20183;-80
2021/03/10 04:02:03;;;;;;;24.83;18.83;;;;;;;;;;4998354;28;20202;-80
2021/03/10 04:04:30;;;;;;;22.90;16.00;;;;;;;;;;4998109;28;20188;-80
2021/03/10 04:06:56;;;;;;;22.17;17.42;;;;;;;;;;4986536;28;20210;-80
2021/03/10 04:09:22;;;;;;;23.10;16.13;;;;;;;;;;5001106;28;20171;-80
2021/03/10 04:11:48;;;;;;;26.05;16.83;;;;;;;;;;5000538;28;20179;-79
2021/03/10 04:14:15;;;;;;;22.60;17.30;;;;;;;;;;4997192;28;20211;-79
2021/03/10 04:16:41;;;;;;;25.73;16.80;;;;;;;;;;5001066;28;20187;-80
2021/03/10 04:19:08;;;;;;;26.00;15.90;;;;;;;;;;4997374;28;20196;-80
2021/03/10 04:21:34;;;;;;;22.70;16.48;;;;;;;;;;4998681;28;20182;-80
2021/03/10 04:24:00;;;;;;;27.03;16.97;;;;;;;;;;4995849;28;20191;-80
2021/03/10 04:26:26;;;;;;;21.48;15.38;;;;;;;;;;5001253;28;20593;-79
2021/03/10 04:28:52;;;;;;;22.65;16.23;;;;;;;;;;5011061;28;20223;-80
2021/03/10 04:31:18;;;;;;;27.35;16.85;;;;;;;;;;4998437;28;20183;-79
2021/03/10 04:33:44;;;;;;;25.65;19.33;;;;;;;;;;4992592;28;20595;-79
2021/03/10 04:36:10;;;;;;;21.63;15.55;;;;;;;;;;4995949;28;20242;-80
2021/03/10 04:38:36;;;;;;;24.05;17.00;;;;;;;;;;4997222;28;20553;-80
2021/03/10 04:41:02;;;;;;;22.00;15.82;;;;;;;;;;4981784;28;20198;-80
2021/03/10 04:43:28;;;;;;;22.63;17.65;;;;;;;;;;4997841;28;20180;-80
2021/03/10 04:45:54;;;;;;;25.30;16.90;;;;;;;;;;5003060;28;20185;-79
2021/03/10 04:48:20;;;;;;;24.73;16.80;;;;;;;;;;5004694;28;20230;-80
2021/03/10 04:50:47;;;;;;;23.60;15.63;;;;;;;;;;4987884;28;20266;-79
2021/03/10 04:53:13;;;;;;;19.98;16.20;;;;;;;;;;4997219;28;20187;-80
2021/03/10 04:55:39;;;;;;;20.00;15.57;;;;;;;;;;4995006;28;20194;-80
2021/03/10 04:58:05;;;;;;;23.30;15.70;;;;;;;;;;5001571;28;20191;-80
2021/03/10 05:00:31;;;;;;;23.75;16.52;;;;;;;;;;4998648;28;20178;-80
2021/03/10 05:02:57;;;;;;;21.00;16.10;;;;;;;;;;4995300;28;20250;-80
2021/03/10 05:05:23;;;;;;;21.98;16.30;;;;;;;;;;4982472;28;20195;-80
2021/03/10 05:07:49;;;;;;;22.05;15.15;;;;;;;;;;5009311;28;20206;-80
2021/03/10 05:10:15;;;;;;;25.95;16.33;;;;;;;;;;4996698;28;20180;-79
2021/03/10 05:12:41;;;;;;;23.15;15.55;;;;;;;;;;4999086;28;20174;-80
2021/03/10 05:15:08;;;;;;;24.05;17.00;;;;;;;;;;5000638;28;20187;-80
2021/03/10 05:17:34;;;;;;;21.33;14.85;;;;;;;;;;5000073;28;20183;-80
2021/03/10 05:20:01;;;;;;;23.38;17.83;;;;;;;;;;4999132;28;20199;-80
2021/03/10 05:22:27;;;;;;;25.08;17.45;;;;;;;;;;4997274;28;20191;-79
2021/03/10 05:24:53;;;;;;;21.67;16.10;;;;;;;;;;4987541;28;20179;-79
2021/03/10 05:27:19;;;;;;;21.05;15.27;;;;;;;;;;4999595;28;20206;-80
2021/03/10 05:29:46;;;;;;;20.63;15.27;;;;;;;;;;4983016;28;20190;-80
2021/03/10 05:32:12;;;;;;;23.70;16.92;;;;;;;;;;4982690;28;20222;-80
2021/03/10 05:34:38;;;;;;;19.88;14.40;;;;;;;;;;5001592;28;20179;-80
2021/03/10 05:37:04;;;;;;;22.00;15.55;;;;;;;;;;4996602;28;25596;-80
2021/03/10 05:39:30;;;;;;;19.17;14.70;;;;;;;;;;5002684;28;20179;-80
2021/03/10 05:41:57;;;;;;;21.83;13.98;;;;;;;;;;5002906;28;20184;-80
2021/03/10 05:44:23;;;;;;;21.15;14.75;;;;;;;;;;5000295;28;20191;-79
2021/03/10 05:46:49;;;;;;;19.70;13.73;;;;;;;;;;5003683;28;20751;-80
2021/03/10 05:49:15;;;;;;;18.80;13.48;;;;;;;;;;5003209;28;20227;-78
2021/03/10 05:51:41;;;;;;;21.52;15.13;;;;;;;;;;4994581;28;20199;-80
2021/03/10 05:54:07;;;;;;;20.90;14.82;;;;;;;;;;4998314;28;20537;-80
2021/03/10 05:56:33;;;;;;;23.00;14.35;;;;;;;;;;4999657;28;20218;-80
2021/03/10 05:59:03;;;;;;;20.75;14.00;;;;;;;;;;5013810;28;20198;-80
2021/03/10 06:01:29;;;;;;;19.02;14.32;;;;;;;;;;5001151;28;20188;-80
2021/03/10 06:03:56;;;;;;;22.92;15.43;;;;;;;;;;4988261;28;20210;-80
2021/03/10 06:06:22;;;;;;;21.10;13.50;;;;;;;;;;4999885;28;20262;-80
2021/03/10 06:08:48;;;;;;;17.20;13.90;;;;;;;;;;4986263;28;20183;-80
2021/03/10 06:11:24;;;;;;;22.08;13.35;;;;;;;;;;4986195;28;20211;-80
2021/03/10 06:13:51;;;;;;;16.90;13.70;;;;;;;;;;4992686;28;20679;-80
2021/03/10 06:16:21;;;;;;;16.60;12.57;;;;;;;;;;4997561;28;20189;-81
2021/03/10 06:18:47;;;;;;;22.42;13.38;;;;;;;;;;5001404;28;20233;-80
2021/03/10 06:21:15;;;;;;;19.90;13.98;;;;;;;;;;5005659;28;20171;-80
2021/03/10 06:23:55;;;;;;;19.67;14.30;;;;;;;;;;4985234;28;20186;-80
2021/03/10 06:26:22;;;;;;;19.98;13.50;;;;;;;;;;4985731;28;20207;-81
2021/03/10 06:28:48;;;;;;;21.75;15.82;;;;;;;;;;5002875;28;20191;-81
2021/03/10 06:31:18;;;;;;;20.33;14.52;;;;;;;;;;5000600;28;20188;-80
2021/03/10 06:33:44;;;;;;;21.92;13.32;;;;;;;;;;5001232;28;20255;-80
2021/03/10 06:36:10;;;;;;;21.63;14.10;;;;;;;;;;4987110;28;20183;-81
2021/03/10 06:38:36;;;;;;;23.02;16.10;;;;;;;;;;5002856;28;20385;-82
2021/03/10 06:41:02;;;;;;;20.52;15.13;;;;;;;;;;5003028;28;20270;-81
2021/03/10 06:43:39;;;;;;;26.95;17.45;;;;;;;;;;5003567;28;20187;-80
2021/03/10 06:46:11;;;;;;;21.85;15.82;;;;;;;;;;5002938;28;20198;-81
2021/03/10 06:48:37;;;;;;;24.20;13.68;;;;;;;;;;5006551;28;20219;-82
2021/03/10 06:51:12;;;;;;;23.45;16.30;;;;;;;;;;4998724;28;20194;-82
2021/03/10 06:53:38;;;;;;;25.63;16.70;;;;;;;;;;5000409;28;20174;-81
2021/03/10 06:56:04;;;;;;;21.75;15.30;;;;;;;;;;4984450;28;20194;-82
2021/03/10 06:58:30;;;;;;;28.88;16.77;;;;;;;;;;5003320;28;20300;-82
2021/03/10 07:01:00;;;;;;;26.35;17.00;;;;;;;;;;5005083;28;20191;-81
2021/03/10 07:03:27;;;;;;;24.23;17.52;;;;;;;;;;4999737;28;20180;-82
2021/03/10 07:05:54;;;;;;;29.60;19.80;;;;;;;;;;4985672;28;20680;-81
2021/03/10 07:08:20;;;;;;;25.77;16.95;;;;;;;;;;4998128;28;20214;-81
2021/03/10 07:10:46;;;;;;;27.45;18.63;;;;;;;;;;5001989;28;20183;-82
2021/03/10 07:13:14;;;;;;;25.52;18.17;;;;;;;;;;4999682;28;20713;-81
2021/03/10 07:15:40;;;;;;;29.45;18.73;;;;;;;;;;5005583;28;20188;-79
2021/03/10 07:18:06;;;;;;;25.98;19.30;;;;;;;;;;5002652;28;20195;-81
2021/03/10 07:20:33;;;;;;;26.80;18.42;;;;;;;;;;4997422;28;20180;-81
2021/03/10 07:23:02;;;;;;;29.67;21.08;;;;;;;;;;5000098;28;20195;-82
2021/03/10 07:25:30;;;;;;;27.85;20.50;;;;;;;;;;4997707;28;20187;-80
2021/03/10 07:27:59;;;;;;;30.70;20.50;;;;;;;;;;5004111;28;20202;-80
2021/03/10 07:30:33;;;;;;;28.48;19.70;;;;;;;;;;4999560;28;20190;-81
2021/03/10 07:33:16;;;;;;;25.42;19.70;;;;;;;;;;4998961;28;20238;-82
2021/03/10 07:35:48;;;;;;;31.65;20.85;;;;;;;;;;5002745;28;20255;-81
2021/03/10 07:38:14;;;;;;;29.77;19.80;;;;;;;;;;4999484;28;20187;-81
2021/03/10 07:40:50;;;;;;;34.33;20.55;;;;;;;;;;5001410;28;20194;-81
2021/03/10 07:43:16;;;;;;;26.55;20.38;;;;;;;;;;5000173;28;20187;-81
2021/03/10 07:45:43;;;;;;;34.83;22.77;;;;;;;;;;4995160;28;20286;-80
2021/03/10 07:48:09;;;;;;;29.67;21.52;;;;;;;;;;5001979;28;20262;-81
2021/03/10 07:50:38;;;;;;;36.13;24.35;;;;;;;;;;5002319;28;20187;-80
2021/03/10 07:53:04;;;;;;;32.10;22.23;;;;;;;;;;5001627;28;20206;-80
2021/03/10 07:55:41;;;;;;;39.85;25.15;;;;;;;;;;5000731;28;20191;-81
2021/03/10 07:58:07;;;;;;;38.03;24.38;;;;;;;;;;5005989;28;20186;-80
2021/03/10 08:00:34;;;;;;;41.00;24.70;;;;;;;;;;5003124;28;20209;-81
2021/03/10 08:03:00;;;;;;;35.95;23.33;;;;;;;;;;5002101;28;20191;-80
2021/03/10 08:05:27;;;;;;;36.45;23.33;;;;;;;;;;5004181;28;20278;-82
2021/03/10 08:08:14;;;;;;;33.70;23.38;;;;;;;;;;4997564;28;20234;-79
2021/03/10 08:10:40;;;;;;;31.40;22.48;;;;;;;;;;4983194;28;20266;-79
2021/03/10 08:13:20;;;;;;;28.27;20.60;;;;;;;;;;5001889;28;20262;-79
2021/03/10 08:15:46;;;;;;;31.55;21.10;;;;;;;;;;5002078;28;20607;-78
2021/03/10 08:18:12;;;;;;;32.90;22.00;;;;;;;;;;5002268;28;20536;-80
2021/03/10 08:20:38;;;;;;;30.63;19.92;;;;;;;;;;5000630;28;20183;-81
2021/03/10 08:23:08;;;;;;;30.70;20.58;;;;;;;;;;4981207;28;20281;-79
2021/03/10 08:25:34;;;;;;;31.08;21.27;;;;;;;;;;5000172;28;20731;-80
2021/03/10 08:28:13;;;;;;;31.52;21.50;;;;;;;;;;4997813;28;20249;-82
2021/03/10 08:30:39;;;;;;;33.25;21.13;;;;;;;;;;5002103;28;20178;-80
2021/03/10 08:33:06;;;;;;;33.38;21.20;;;;;;;;;;4997417;28;20179;-79
2021/03/10 08:35:32;;;;;;;32.03;20.08;;;;;;;;;;4996244;28;20222;-83
2021/03/10 08:38:00;;;;;;;35.53;21.10;;;;;;;;;;4999131;28;20199;-83
2021/03/10 08:40:28;;;;;;;33.00;22.33;;;;;;;;;;5009415;28;20179;-81
2021/03/10 08:42:55;;;;;;;30.75;20.73;;;;;;;;;;4992337;28;20202;-82
2021/03/10 08:45:29;;;;;;;30.08;20.42;;;;;;;;;;4999214;28;20215;-80
2021/03/10 08:48:05;;;;;;;30.88;21.85;;;;;;;;;;5000739;28;20231;-80
2021/03/10 08:50:35;;;;;;;32.30;21.63;;;;;;;;;;5000627;28;20666;-80
2021/03/10 08:53:02;;;;;;;32.15;20.98;;;;;;;;;;4999286;28;20195;-80
2021/03/10 08:55:28;;;;;;;32.58;22.48;;;;;;;;;;4998921;28;20182;-81
2021/03/10 08:57:54;;;;;;;36.42;21.65;;;;;;;;;;5002389;28;20199;-81
2021/03/10 09:00:21;;;;;;;32.60;23.38;;;;;;;;;;5001870;28;20199;-83
2021/03/10 09:02:49;;;;;;;31.65;21.27;;;;;;;;;;4982851;28;20282;-81
2021/03/10 09:05:15;;;;;;;37.15;22.90;;;;;;;;;;4999948;28;20187;-79
2021/03/10 09:07:41;;;;;;;36.30;24.10;;;;;;;;;;5000462;28;20214;-82
2021/03/10 09:10:18;;;;;;;35.97;21.83;;;;;;;;;;4984486;28;21128;-81
2021/03/10 09:12:47;;;;;;;34.90;23.35;;;;;;;;;;5001537;28;20185;-79
2021/03/10 09:15:21;;;;;;;32.95;23.10;;;;;;;;;;4999703;28;20343;-78
2021/03/10 09:17:47;;;;;;;34.45;24.27;;;;;;;;;;4998947;28;20190;-80
2021/03/10 09:20:28;;;;;;;36.05;23.40;;;;;;;;;;5001589;28;20259;-80
2021/03/10 09:22:54;;;;;;;32.38;21.95;;;;;;;;;;5005139;28;20190;-79
2021/03/10 09:25:30;;;;;;;33.40;23.42;;;;;;;;;;5004596;28;20242;-80
2021/03/10 09:28:02;;;;;;;31.15;21.85;;;;;;;;;;4991211;28;20213;-82
2021/03/10 09:30:30;;;;;;;39.28;24.25;;;;;;;;;;5009940;28;20179;-78
2021/03/10 09:32:56;;;;;;;36.80;22.50;;;;;;;;;;5000310;28;20179;-79
2021/03/10 09:35:23;;;;;;;31.30;22.98;;;;;;;;;;5004886;28;20191;-80
2021/03/10 09:37:51;;;;;;;32.40;22.27;;;;;;;;;;4988086;28;20199;-80
2021/03/10 09:40:18;;;;;;;35.58;23.88;;;;;;;;;;5002497;28;20198;-80
2021/03/10 09:43:03;;;;;;;31.60;22.17;;;;;;;;;;4993930;28;20187;-82
2021/03/10 09:45:31;;;;;;;32.90;22.77;;;;;;;;;;4988020;28;20206;-79
2021/03/10 09:47:56;;;;;;;34.95;24.95;;;;;;;;;;5004985;28;20227;-76
2021/03/10 09:50:27;;;;;;;32.28;21.52;;;;;;;;;;5004784;28;20214;-80
2021/03/10 09:52:53;;;;;;;34.15;21.35;;;;;;;;;;5002682;28;20190;-80
2021/03/10 09:55:20;;;;;;;35.90;22.63;;;;;;;;;;4998909;28;20219;-80
2021/03/10 09:57:46;;;;;;;31.17;22.00;;;;;;;;;;4992944;28;20564;-80
2021/03/10 10:00:22;;;;;;;31.60;20.77;;;;;;;;;;4999853;28;20186;-81
2021/03/10 10:02:48;;;;;;;37.30;23.15;;;;;;;;;;5004328;28;20261;-81
2021/03/10 10:05:21;;;;;;;34.85;23.33;;;;;;;;;;4986548;28;20183;-79
2021/03/10 10:07:48;;;;;;;31.98;22.52;;;;;;;;;;5003112;28;20203;-79
2021/03/10 10:10:13;;;;;;;34.75;23.10;;;;;;;;;;5000372;28;20186;-80
2021/03/10 10:12:43;;;;;;;34.60;24.13;;;;;;;;;;5001954;28;20179;-80
2021/03/10 10:15:10;;;;;;;34.55;22.27;;;;;;;;;;5003147;28;20259;-81
2021/03/10 10:17:37;;;;;;;33.40;24.15;;;;;;;;;;4985561;28;20179;-81
2021/03/10 10:20:04;;;;;;;30.85;21.83;;;;;;;;;;5002206;28;20190;-80
2021/03/10 10:22:30;;;;;;;35.38;23.40;;;;;;;;;;5001260;28;20191;-82
2021/03/10 10:24:56;;;;;;;36.65;23.67;;;;;;;;;;5005435;28;20187;-82
2021/03/10 10:27:22;;;;;;;32.42;22.85;;;;;;;;;;4999506;28;20237;-82
2021/03/10 10:29:48;;;;;;;32.47;23.90;;;;;;;;;;4985969;28;20262;-84
2021/03/10 10:32:14;;;;;;;30.50;21.60;;;;;;;;;;4999635;28;20458;-84
2021/03/10 10:34:40;;;;;;;32.28;21.83;;;;;;;;;;5002027;28;20792;-81
2021/03/10 10:37:06;;;;;;;32.33;21.55;;;;;;;;;;4998850;28;20223;-84
2021/03/10 10:39:32;;;;;;;30.60;23.77;;;;;;;;;;5000508;28;20203;-82
2021/03/10 10:41:58;;;;;;;31.37;24.13;;;;;;;;;;4998170;28;20437;-81
2021/03/10 10:44:24;;;;;;;32.67;23.37;;;;;;;;;;5003648;28;20948;-82
2021/03/10 10:46:50;;;;;;;36.40;23.97;;;;;;;;;;5002271;28;20557;-81
2021/03/10 10:49:16;;;;;;;31.43;23.70;;;;;;;;;;4998244;28;20462;-83
2021/03/10 10:51:43;;;;;;;30.75;22.90;;;;;;;;;;5003684;28;20461;-82
2021/03/10 10:54:09;;;;;;;36.03;24.65;;;;;;;;;;4985677;28;20541;-79
2021/03/10 10:56:35;;;;;;;37.30;24.60;;;;;;;;;;5001712;28;20222;-83
2021/03/10 10:59:01;;;;;;;35.53;24.03;;;;;;;;;;5001398;28;20183;-82
2021/03/10 11:01:27;;;;;;;34.15;25.00;;;;;;;;;;4999949;28;20438;-82
2021/03/10 11:03:53;;;;;;;35.50;24.45;;;;;;;;;;5000006;28;20222;-83
2021/03/10 11:06:19;;;;;;;35.47;26.17;;;;;;;;;;5000488;28;20187;-83
2021/03/10 11:08:45;;;;;;;35.92;24.08;;;;;;;;;;4993224;28;20482;-79
2021/03/10 11:11:11;;;;;;;37.10;25.33;;;;;;;;;;4986976;28;20175;-79
2021/03/10 11:13:37;;;;;;;38.43;24.33;;;;;;;;;;5003179;28;20440;-82
2021/03/10 11:16:03;;;;;;;35.33;23.95;;;;;;;;;;5003338;28;20438;-80
2021/03/10 11:18:29;;;;;;;40.35;27.48;;;;;;;;;;5002720;28;20581;-84
2021/03/10 11:20:55;;;;;;;37.70;26.30;;;;;;;;;;4995813;28;20218;-80
2021/03/10 11:23:21;;;;;;;35.97;24.77;;;;;;;;;;4996285;28;20206;-82
2021/03/10 11:25:47;;;;;;;36.70;25.73;;;;;;;;;;5001511;28;20187;-80
2021/03/10 11:28:14;;;;;;;40.70;26.77;;;;;;;;;;4997535;28;20872;-79
2021/03/10 11:30:40;;;;;;;39.42;25.65;;;;;;;;;;5000705;28;20469;-83
2021/03/10 11:33:06;;;;;;;37.03;25.52;;;;;;;;;;4995697;28;20187;-81
2021/03/10 11:35:32;;;;;;;34.77;26.47;;;;;;;;;;4996680;28;20556;-84
2021/03/10 11:37:58;;;;;;;41.72;27.17;;;;;;;;;;5002137;28;20450;-79
2021/03/10 11:40:24;;;;;;;40.33;27.20;;;;;;;;;;5000245;28;20188;-84
2021/03/10 11:42:50;;;;;;;40.35;26.50;;;;;;;;;;4987840;28;20431;-79
2021/03/10 11:45:16;;;;;;;34.13;25.92;;;;;;;;;;5006715;28;20183;-78
2021/03/10 11:47:42;;;;;;;38.15;27.17;;;;;;;;;;4983980;28;20227;-82
2021/03/10 11:50:08;;;;;;;35.85;26.30;;;;;;;;;;5001619;28;20194;-79
2021/03/10 11:52:34;;;;;;;36.47;26.75;;;;;;;;;;4979389;28;20518;-80
2021/03/10 11:55:00;;;;;;;40.15;28.23;;;;;;;;;;4999294;28;20178;-79
2021/03/10 11:57:26;;;;;;;37.20;25.30;;;;;;;;;;5005873;28;20269;-79
2021/03/10 11:59:52;;;;;;;37.88;28.40;;;;;;;;;;5003546;28;20194;-81
2021/03/10 12:02:18;;;;;;;36.20;27.00;;;;;;;;;;5001868;28;20186;-82
2021/03/10 12:04:44;;;;;;;39.37;27.07;;;;;;;;;;5001744;28;20282;-81
2021/03/10 12:07:11;;;;;;;37.90;26.40;;;;;;;;;;4996131;28;20470;-83
2021/03/10 12:09:37;;;;;;;32.63;24.00;;;;;;;;;;5000735;28;20178;-82
2021/03/10 12:12:03;;;;;;;37.10;25.95;;;;;;;;;;4996531;28;20179;-78
2021/03/10 12:14:29;;;;;;;38.92;24.77;;;;;;;;;;4997427;28;20184;-81
2021/03/10 12:16:55;;;;;;;39.55;25.70;;;;;;;;;;5001814;28;20195;-80
2021/03/10 12:19:21;;;;;;;38.92;25.95;;;;;;;;;;5001704;28;20431;-81
2021/03/10 12:21:47;;;;;;;32.15;24.95;;;;;;;;;;5002316;28;20184;-80
2021/03/10 12:24:13;;;;;;;35.15;25.58;;;;;;;;;;4996485;28;20335;-81
2021/03/10 12:26:39;;;;;;;34.25;25.85;;;;;;;;;;5001170;28;20187;-81
2021/03/10 12:29:05;;;;;;;36.40;25.17;;;;;;;;;;5004141;28;20563;-79
2021/03/10 12:31:31;;;;;;;35.28;24.02;;;;;;;;;;5001074;28;20203;-81
2021/03/10 12:33:57;;;;;;;34.08;27.42;;;;;;;;;;4997022;28;20210;-79
2021/03/10 12:36:23;;;;;;;39.15;28.38;;;;;;;;;;5003897;28;20247;-81
2021/03/10 12:38:49;;;;;;;38.28;26.63;;;;;;;;;;4999288;28;20190;-80
2021/03/10 12:41:15;;;;;;;36.93;25.40;;;;;;;;;;4996742;28;20219;-80
2021/03/10 12:43:41;;;;;;;41.03;27.55;;;;;;;;;;4999341;28;20549;-78
2021/03/10 12:46:07;;;;;;;39.35;25.85;;;;;;;;;;4980983;28;20189;-78
2021/03/10 12:48:33;;;;;;;40.17;27.30;;;;;;;;;;4986420;28;20235;-81
2021/03/10 12:50:59;;;;;;;37.78;27.48;;;;;;;;;;4981282;28;20572;-80
2021/03/10 12:53:25;;;;;;;41.97;27.38;;;;;;;;;;4992999;28;20187;-81
2021/03/10 12:55:52;;;;;;;34.17;23.63;;;;;;;;;;5000332;28;20239;-80
2021/03/10 12:58:18;;;;;;;36.25;25.08;;;;;;;;;;5001052;28;20237;-80
2021/03/10 13:00:43;;;;;;;36.87;26.20;;;;;;;;;;5003190;28;20182;-80
2021/03/10 13:03:09;;;;;;;31.83;24.27;;;;;;;;;;4995313;28;20450;-80
2021/03/10 13:05:36;;;;;;;33.05;24.20;;;;;;;;;;4999703;28;20633;-80
2021/03/10 13:08:03;;;;;;;32.25;23.52;;;;;;;;;;4999358;28;20260;-82
2021/03/10 13:10:29;;;;;;;31.88;23.35;;;;;;;;;;5000516;28;20186;-83
2021/03/10 13:12:55;;;;;;;29.10;22.88;;;;;;;;;;4987222;28;20171;-81
2021/03/10 13:15:21;;;;;;;34.90;22.93;;;;;;;;;;5003250;28;20206;-80
2021/03/10 13:17:47;;;;;;;26.45;20.70;;;;;;;;;;4998169;28;20506;-80
2021/03/10 13:20:13;;;;;;;26.73;21.25;;;;;;;;;;4999520;28;20186;-79
2021/03/10 13:22:39;;;;;;;30.25;21.10;;;;;;;;;;4998341;28;20632;-83
2021/03/10 13:25:06;;;;;;;28.52;21.33;;;;;;;;;;5002005;28;20246;-80
2021/03/10 13:27:32;;;;;;;28.77;23.00;;;;;;;;;;5001802;28;20254;-81
2021/03/10 13:29:58;;;;;;;32.97;24.10;;;;;;;;;;4999608;28;20214;-82
2021/03/10 13:32:24;;;;;;;30.00;21.23;;;;;;;;;;4998610;28;20190;-85
2021/03/10 13:34:50;;;;;;;28.67;20.63;;;;;;;;;;4998484;28;20187;-82
2021/03/10 13:37:16;;;;;;;27.77;20.73;;;;;;;;;;4999193;28;20187;-82
2021/03/10 13:39:42;;;;;;;31.48;20.50;;;;;;;;;;4999561;28;20632;-80
2021/03/10 13:42:08;;;;;;;28.30;19.37;;;;;;;;;;4982388;28;20203;-80
2021/03/10 13:44:34;;;;;;;31.15;17.63;;;;;;;;;;4998678;28;20473;-81
2021/03/10 13:47:00;;;;;;;25.33;18.45;;;;;;;;;;4999070;28;20214;-81
2021/03/10 13:49:26;;;;;;;26.85;16.92;;;;;;;;;;4993920;28;20219;-83
2021/03/10 13:51:52;;;;;;;26.73;19.52;;;;;;;;;;5001484;28;20210;-81
2021/03/10 13:54:18;;;;;;;25.08;17.98;;;;;;;;;;5002020;28;20183;-80
2021/03/10 13:56:44;;;;;;;25.93;17.00;;;;;;;;;;4997616;28;20215;-80
2021/03/10 13:59:10;;;;;;;18.88;15.05;;;;;;;;;;4999863;28;20433;-79
2021/03/10 14:01:35;;;;;;;22.80;16.47;;;;;;;;;;4999453;28;20192;-81
2021/03/10 14:04:01;;;;;;;23.77;16.80;;;;;;;;;;5001657;28;20422;-81
2021/03/10 14:06:27;;;;;;;28.77;17.85;;;;;;;;;;5006126;28;20431;-80
2021/03/10 14:08:53;;;;;;;22.38;16.85;;;;;;;;;;5003588;28;20183;-81
2021/03/10 14:11:19;;;;;;;26.40;17.53;;;;;;;;;;4985392;28;20191;-80
2021/03/10 14:13:45;;;;;;;22.73;17.23;;;;;;;;;;5002503;28;20441;-81
2021/03/10 14:16:11;;;;;;;22.98;13.57;;;;;;;;;;5003589;28;20458;-80
2021/03/10 14:18:38;;;;;;;20.15;13.98;;;;;;;;;;5010859;28;20179;-81